VTCCVYYY

Guest
Details From VTCC - Chiang Mai Intl
To VYYY - YANGON INTL
Flight Number -
Tags generated
Created
Modified
Stats Distance 196 nm / 364 km
Max Altitude 20,200 ft / 6,157 m
Waypoints 3
Social Downloads 0
Likes 0
Share VATSIM

Download

Looking for another format? Having issues loading an existing format? Contact us
Advertisement - Login to hide

Notes

Basic altitude profile: - Ascent Rate: 2500ft/min - Ascent Speed: 250kts - Cruise Altitude: 35000ft - Cruise Speed: 420kts - Descent Rate: 1500ft/min - Descent Speed: 250kts Options: - Use NATs: yes - Use PACOTS: yes - Use low airways: yes - Use high airways: yes

Route

VTCC BINOV VYYY

ID Type Via Altitude Latitude Longitude Leg Dist Tot Dist Heading (true) Name
O VTCC APT - 0 ft / 0 m 18.76685˚ 98.96264˚ - 0 nm - Chiang Mai Intl
BINOV FIX - 20,200 ft / 6,157 m 17.86792˚ 97.54633˚ 97 nm 97 nm 236° / 236° -
O VYYY APT - 0 ft / 0 m 16.91084˚ 96.13568˚ 99 nm 196 nm 235° / 234° YANGON INTL

Altitude Profile

Advertisement - Login to hide

Weather


0- 5 10 15 20 25 30 35+ Temperature / ° C

Clouds and Precipitation
Forecast for 2018-05-22 06:00 UTC. Updated 3 hours ago

Ground ~20,000 ft ~40,000 ft Winds

VTCC

Details ICAO VTCC (CNX)
Name Chiang Mai Intl
Region Thailand
Timezone Asia/Bangkok (UTC+7.0)
Stats Elevation 1,036 ft / 316 m (AMSL)
Location 18.766845° 98.962643°
Runways 1
Magnetic Variation 0.732° W

METAR

VTCC 220830Z 33004KT 9999 FEW035 32/21 Q1010 NOSIG

Decode

TAF

TAF VTCC 220500Z 2206/2312 22005KT 9999 SCT030 TEMPO 2208/2215 VRB15G30KT 4000 TSRA FEW020CB BKN035 TEMPO 2309/2312 VRB15G30KT 4000 TSRA FEW020CB BKN035

Decode

Departure Runways

ID Width Length Bearing (true) Bearing (mag) Surface Threshold Offset Overrun Length
18 148 ft / 45 m 10,237 ft / 3,120 m 180.22° 180.95° Asphalt 0 ft / 0 m 974 ft / 297 m
36 148 ft / 45 m 10,237 ft / 3,120 m 0.22° 0.95° Asphalt 0 ft / 0 m 341 ft / 104 m

VYYY

Details ICAO VYYY (RGN)
Name YANGON INTL
Region Myanmar
Timezone Asia/Rangoon (UTC+6.5)
Stats Elevation 109 ft / 33 m (AMSL)
Location 16.910841° 96.135680°
Runways 1
Magnetic Variation 0.624° W

METAR

VYYY 220800Z 18010KT 9000 FEW018 SCT150 35/24 Q1007

Decode

TAF

TAF TAF VYYY 220500Z 2206/2306 18005G15KT 8000 BKN013 FEW025CB BKN130 TEMPO 2209/2212 25005G18KT 4000 +TSRA BKN008 FEW018CB OVC090

Decode

Destination Runways

ID Width Length Bearing (true) Bearing (mag) Surface Threshold Offset Overrun Length
03 200 ft / 61 m 11,251 ft / 3,429 m 33.10° 33.72° Asphalt 0 ft / 0 m 194 ft / 59 m
21 200 ft / 61 m 11,251 ft / 3,429 m 213.10° 213.72° Asphalt 276 ft / 84 m 0 ft / 0 m

Approach Navaids

Runway Type Ident Frequency Range Bearing (true) Bearing (mag) Slope Elevation
21 Localiser IYGN 109.90 MHz 18 nm / 33 km 213.02° 213.65° - 65 ft / 20 m (AMSL)
21 Glidescope IYGN 109.90 MHz 10 nm / 19 km 213.10° 213.72° 3.00° 65 ft / 20 m (AMSL)
21 DME IYGN 109.90 MHz 18 nm / 33 km - - - 50 ft / 15 m (AMSL)

Popular Alternatives